Terminal Aerodrome Forecast
Issued by NWS

Home | Current Version | Previous Version | Text Only | Print | Product List | Glossary On
Versions: 1 2 3 4 5 6 7 8 9 10 11 12 13 14 15 16 17 18 19 20 21 22 23 24 25 26
114
FTUS43 KDVN 281951 AAA
TAFCID
TAF AMD
KCID 281951Z 2820/2918 05010KT 6SM -RA BR OVC018
      TEMPO 2820/2822 2SM RA BR BKN007 OVC012
     FM290000 04012KT 6SM -RA BR OVC012
     FM290600 03015KT P6SM OVC012
     FM291100 03018G23KT P6SM OVC012=

USA.gov is the U.S. government's official web portal to all federal, state and local government web resources and services.